sensor_id;sensor_type;location;lat;lon;timestamp;P1;durP1;ratioP1;P2;durP2;ratioP2
2488;SDS011;1255;48.716;9.124;2023-04-25T00:00:41;1.85;;;1.63;;
2488;SDS011;1255;48.716;9.124;2023-04-25T00:03:09;1.95;;;1.60;;
2488;SDS011;1255;48.716;9.124;2023-04-25T00:05:36;1.83;;;1.70;;
2488;SDS011;1255;48.716;9.124;2023-04-25T00:08:04;1.80;;;1.50;;
2488;SDS011;1255;48.716;9.124;2023-04-25T00:10:30;2.28;;;1.90;;
2488;SDS011;1255;48.716;9.124;2023-04-25T00:12:57;1.98;;;1.63;;
2488;SDS011;1255;48.716;9.124;2023-04-25T00:15:27;1.73;;;1.63;;
2488;SDS011;1255;48.716;9.124;2023-04-25T00:17:55;2.60;;;2.35;;
2488;SDS011;1255;48.716;9.124;2023-04-25T00:20:24;2.40;;;2.20;;
2488;SDS011;1255;48.716;9.124;2023-04-25T00:22:50;1.65;;;1.55;;
2488;SDS011;1255;48.716;9.124;2023-04-25T00:25:18;2.20;;;2.00;;
2488;SDS011;1255;48.716;9.124;2023-04-25T00:27:45;2.10;;;1.90;;
2488;SDS011;1255;48.716;9.124;2023-04-25T00:30:12;2.35;;;1.92;;
2488;SDS011;1255;48.716;9.124;2023-04-25T00:32:39;1.75;;;1.60;;
2488;SDS011;1255;48.716;9.124;2023-04-25T00:35:06;1.80;;;1.70;;
2488;SDS011;1255;48.716;9.124;2023-04-25T00:37:35;2.40;;;2.20;;
2488;SDS011;1255;48.716;9.124;2023-04-25T00:40:02;2.33;;;1.63;;
2488;SDS011;1255;48.716;9.124;2023-04-25T00:42:32;2.00;;;1.80;;
2488;SDS011;1255;48.716;9.124;2023-04-25T00:45:00;1.65;;;1.50;;
2488;SDS011;1255;48.716;9.124;2023-04-25T00:47:28;2.65;;;1.60;;
2488;SDS011;1255;48.716;9.124;2023-04-25T00:49:55;2.88;;;2.00;;
2488;SDS011;1255;48.716;9.124;2023-04-25T00:52:21;2.17;;;2.03;;
2488;SDS011;1255;48.716;9.124;2023-04-25T00:54:50;2.50;;;2.30;;
2488;SDS011;1255;48.716;9.124;2023-04-25T00:59:45;2.80;;;1.50;;
2488;SDS011;1255;48.716;9.124;2023-04-25T01:02:12;1.83;;;1.55;;
2488;SDS011;1255;48.716;9.124;2023-04-25T01:04:39;4.18;;;1.88;;
2488;SDS011;1255;48.716;9.124;2023-04-25T01:07:06;1.92;;;1.73;;
2488;SDS011;1255;48.716;9.124;2023-04-25T01:09:33;1.95;;;1.77;;
2488;SDS011;1255;48.716;9.124;2023-04-25T01:12:02;1.75;;;1.65;;
2488;SDS011;1255;48.716;9.124;2023-04-25T01:14:29;2.85;;;1.45;;
2488;SDS011;1255;48.716;9.124;2023-04-25T01:16:56;2.28;;;1.75;;
2488;SDS011;1255;48.716;9.124;2023-04-25T01:19:22;2.15;;;1.65;;
2488;SDS011;1255;48.716;9.124;2023-04-25T01:21:51;2.00;;;1.80;;
2488;SDS011;1255;48.716;9.124;2023-04-25T01:24:18;1.98;;;1.58;;
2488;SDS011;1255;48.716;9.124;2023-04-25T01:26:45;1.85;;;1.75;;
2488;SDS011;1255;48.716;9.124;2023-04-25T01:29:14;2.10;;;1.90;;
2488;SDS011;1255;48.716;9.124;2023-04-25T01:31:41;2.65;;;1.95;;
2488;SDS011;1255;48.716;9.124;2023-04-25T01:34:10;2.55;;;2.20;;
2488;SDS011;1255;48.716;9.124;2023-04-25T01:36:37;2.10;;;1.90;;
2488;SDS011;1255;48.716;9.124;2023-04-25T01:39:05;2.67;;;2.20;;
2488;SDS011;1255;48.716;9.124;2023-04-25T01:41:33;2.28;;;1.92;;
2488;SDS011;1255;48.716;9.124;2023-04-25T01:44:00;2.13;;;1.90;;
2488;SDS011;1255;48.716;9.124;2023-04-25T01:46:27;2.38;;;2.17;;
2488;SDS011;1255;48.716;9.124;2023-04-25T01:48:54;1.77;;;1.67;;
2488;SDS011;1255;48.716;9.124;2023-04-25T01:51:21;2.35;;;2.00;;
2488;SDS011;1255;48.716;9.124;2023-04-25T01:53:48;2.13;;;1.92;;
2488;SDS011;1255;48.716;9.124;2023-04-25T01:56:16;2.10;;;1.90;;
2488;SDS011;1255;48.716;9.124;2023-04-25T01:58:44;1.60;;;1.50;;
2488;SDS011;1255;48.716;9.124;2023-04-25T02:01:11;2.28;;;2.00;;
2488;SDS011;1255;48.716;9.124;2023-04-25T02:03:38;2.70;;;1.98;;
2488;SDS011;1255;48.716;9.124;2023-04-25T02:06:04;2.25;;;1.85;;
2488;SDS011;1255;48.716;9.124;2023-04-25T02:08:31;2.05;;;1.52;;
2488;SDS011;1255;48.716;9.124;2023-04-25T02:10:58;2.70;;;1.60;;
2488;SDS011;1255;48.716;9.124;2023-04-25T02:13:26;1.80;;;1.60;;
2488;SDS011;1255;48.716;9.124;2023-04-25T02:15:53;2.25;;;1.60;;
2488;SDS011;1255;48.716;9.124;2023-04-25T02:18:20;1.38;;;1.27;;
2488;SDS011;1255;48.716;9.124;2023-04-25T02:20:46;3.05;;;2.40;;
2488;SDS011;1255;48.716;9.124;2023-04-25T02:23:13;2.35;;;1.65;;
2488;SDS011;1255;48.716;9.124;2023-04-25T02:25:40;2.47;;;1.75;;
2488;SDS011;1255;48.716;9.124;2023-04-25T02:28:07;2.47;;;1.60;;
2488;SDS011;1255;48.716;9.124;2023-04-25T02:30:35;2.08;;;1.65;;
2488;SDS011;1255;48.716;9.124;2023-04-25T02:33:02;3.15;;;1.73;;
2488;SDS011;1255;48.716;9.124;2023-04-25T02:35:29;1.75;;;1.52;;
2488;SDS011;1255;48.716;9.124;2023-04-25T02:37:55;3.08;;;1.65;;
2488;SDS011;1255;48.716;9.124;2023-04-25T02:40:22;2.17;;;1.95;;
2488;SDS011;1255;48.716;9.124;2023-04-25T02:42:49;1.70;;;1.55;;
2488;SDS011;1255;48.716;9.124;2023-04-25T02:45:16;2.72;;;1.55;;
2488;SDS011;1255;48.716;9.124;2023-04-25T02:47:44;1.63;;;1.52;;
2488;SDS011;1255;48.716;9.124;2023-04-25T02:50:11;2.53;;;1.50;;
2488;SDS011;1255;48.716;9.124;2023-04-25T02:52:38;2.33;;;1.75;;
2488;SDS011;1255;48.716;9.124;2023-04-25T02:55:05;2.60;;;1.45;;
2488;SDS011;1255;48.716;9.124;2023-04-25T02:57:32;1.58;;;1.48;;
2488;SDS011;1255;48.716;9.124;2023-04-25T02:59:59;2.30;;;2.00;;
2488;SDS011;1255;48.716;9.124;2023-04-25T03:02:26;2.65;;;1.63;;
2488;SDS011;1255;48.716;9.124;2023-04-25T03:04:54;2.60;;;2.00;;
2488;SDS011;1255;48.716;9.124;2023-04-25T03:07:21;1.70;;;1.60;;
2488;SDS011;1255;48.716;9.124;2023-04-25T03:09:47;1.50;;;1.40;;
2488;SDS011;1255;48.716;9.124;2023-04-25T03:12:14;4.72;;;1.67;;
2488;SDS011;1255;48.716;9.124;2023-04-25T03:14:41;1.70;;;1.60;;
2488;SDS011;1255;48.716;9.124;2023-04-25T03:17:08;1.30;;;1.20;;
2488;SDS011;1255;48.716;9.124;2023-04-25T03:19:35;2.67;;;1.80;;
2488;SDS011;1255;48.716;9.124;2023-04-25T03:22:03;1.70;;;1.60;;
2488;SDS011;1255;48.716;9.124;2023-04-25T03:24:30;1.60;;;1.50;;
2488;SDS011;1255;48.716;9.124;2023-04-25T03:26:56;4.45;;;1.75;;
2488;SDS011;1255;48.716;9.124;2023-04-25T03:29:23;1.98;;;1.50;;
2488;SDS011;1255;48.716;9.124;2023-04-25T03:31:51;2.25;;;1.80;;
2488;SDS011;1255;48.716;9.124;2023-04-25T03:34:18;8.88;;;2.15;;
2488;SDS011;1255;48.716;9.124;2023-04-25T03:36:46;3.03;;;2.08;;
2488;SDS011;1255;48.716;9.124;2023-04-25T03:39:14;1.52;;;1.42;;
2488;SDS011;1255;48.716;9.124;2023-04-25T03:41:41;3.50;;;2.05;;
2488;SDS011;1255;48.716;9.124;2023-04-25T03:44:08;2.15;;;1.80;;
2488;SDS011;1255;48.716;9.124;2023-04-25T03:46:34;2.15;;;1.70;;
2488;SDS011;1255;48.716;9.124;2023-04-25T03:49:01;1.73;;;1.63;;
2488;SDS011;1255;48.716;9.124;2023-04-25T03:51:28;1.98;;;1.70;;
2488;SDS011;1255;48.716;9.124;2023-04-25T03:53:56;2.10;;;1.90;;
2488;SDS011;1255;48.716;9.124;2023-04-25T03:56:24;2.10;;;1.60;;
2488;SDS011;1255;48.716;9.124;2023-04-25T03:58:50;1.83;;;1.60;;
2488;SDS011;1255;48.716;9.124;2023-04-25T04:01:17;3.67;;;2.17;;
2488;SDS011;1255;48.716;9.124;2023-04-25T04:03:44;2.22;;;1.58;;
2488;SDS011;1255;48.716;9.124;2023-04-25T04:06:11;2.58;;;2.13;;
2488;SDS011;1255;48.716;9.124;2023-04-25T04:08:38;1.92;;;1.75;;
2488;SDS011;1255;48.716;9.124;2023-04-25T04:11:05;1.92;;;1.73;;
2488;SDS011;1255;48.716;9.124;2023-04-25T04:13:33;2.45;;;1.90;;
2488;SDS011;1255;48.716;9.124;2023-04-25T04:15:59;1.88;;;1.75;;
2488;SDS011;1255;48.716;9.124;2023-04-25T04:18:26;2.25;;;1.80;;
2488;SDS011;1255;48.716;9.124;2023-04-25T04:20:53;2.03;;;1.83;;
2488;SDS011;1255;48.716;9.124;2023-04-25T04:23:20;3.60;;;2.40;;
2488;SDS011;1255;48.716;9.124;2023-04-25T04:25:47;2.30;;;2.10;;
2488;SDS011;1255;48.716;9.124;2023-04-25T04:28:14;5.88;;;2.17;;
2488;SDS011;1255;48.716;9.124;2023-04-25T04:30:42;4.57;;;1.85;;
2488;SDS011;1255;48.716;9.124;2023-04-25T04:33:12;1.77;;;1.60;;
2488;SDS011;1255;48.716;9.124;2023-04-25T04:35:40;2.45;;;2.00;;
2488;SDS011;1255;48.716;9.124;2023-04-25T04:38:08;2.10;;;1.90;;
2488;SDS011;1255;48.716;9.124;2023-04-25T04:40:35;2.40;;;2.20;;
2488;SDS011;1255;48.716;9.124;2023-04-25T04:43:02;2.40;;;1.80;;
2488;SDS011;1255;48.716;9.124;2023-04-25T04:45:29;4.30;;;2.15;;
2488;SDS011;1255;48.716;9.124;2023-04-25T04:47:57;2.20;;;2.00;;
2488;SDS011;1255;48.716;9.124;2023-04-25T04:50:24;2.05;;;1.80;;
2488;SDS011;1255;48.716;9.124;2023-04-25T04:52:51;4.95;;;2.03;;
2488;SDS011;1255;48.716;9.124;2023-04-25T04:55:19;3.22;;;2.13;;
2488;SDS011;1255;48.716;9.124;2023-04-25T04:57:46;3.55;;;1.90;;
2488;SDS011;1255;48.716;9.124;2023-04-25T05:00:13;1.98;;;1.75;;
2488;SDS011;1255;48.716;9.124;2023-04-25T05:02:40;2.63;;;1.65;;
2488;SDS011;1255;48.716;9.124;2023-04-25T05:05:08;2.38;;;1.98;;
2488;SDS011;1255;48.716;9.124;2023-04-25T05:07:35;1.92;;;1.73;;
2488;SDS011;1255;48.716;9.124;2023-04-25T05:10:02;3.33;;;2.35;;
2488;SDS011;1255;48.716;9.124;2023-04-25T05:12:29;4.07;;;2.10;;
2488;SDS011;1255;48.716;9.124;2023-04-25T05:14:56;2.83;;;1.70;;
2488;SDS011;1255;48.716;9.124;2023-04-25T05:17:23;2.40;;;2.15;;
2488;SDS011;1255;48.716;9.124;2023-04-25T05:19:50;2.13;;;1.80;;
2488;SDS011;1255;48.716;9.124;2023-04-25T05:22:18;2.58;;;2.28;;
2488;SDS011;1255;48.716;9.124;2023-04-25T05:24:44;2.65;;;2.28;;
2488;SDS011;1255;48.716;9.124;2023-04-25T05:27:13;2.60;;;1.95;;
2488;SDS011;1255;48.716;9.124;2023-04-25T05:29:39;2.92;;;2.20;;
2488;SDS011;1255;48.716;9.124;2023-04-25T05:32:06;2.55;;;1.85;;
2488;SDS011;1255;48.716;9.124;2023-04-25T05:34:34;2.78;;;2.17;;
2488;SDS011;1255;48.716;9.124;2023-04-25T05:37:01;2.75;;;2.22;;
2488;SDS011;1255;48.716;9.124;2023-04-25T05:39:29;1.80;;;1.65;;
2488;SDS011;1255;48.716;9.124;2023-04-25T05:41:56;2.17;;;2.00;;
2488;SDS011;1255;48.716;9.124;2023-04-25T05:44:23;5.97;;;2.15;;
2488;SDS011;1255;48.716;9.124;2023-04-25T05:46:50;2.17;;;1.90;;
2488;SDS011;1255;48.716;9.124;2023-04-25T05:49:16;2.65;;;2.22;;
2488;SDS011;1255;48.716;9.124;2023-04-25T05:51:43;3.20;;;2.05;;
2488;SDS011;1255;48.716;9.124;2023-04-25T05:54:10;3.70;;;2.00;;
2488;SDS011;1255;48.716;9.124;2023-04-25T05:56:38;3.25;;;2.08;;
2488;SDS011;1255;48.716;9.124;2023-04-25T05:59:04;2.22;;;2.03;;
2488;SDS011;1255;48.716;9.124;2023-04-25T06:01:32;3.08;;;2.10;;
2488;SDS011;1255;48.716;9.124;2023-04-25T06:03:58;2.60;;;2.40;;
2488;SDS011;1255;48.716;9.124;2023-04-25T06:06:25;5.57;;;2.17;;
2488;SDS011;1255;48.716;9.124;2023-04-25T06:08:52;5.63;;;3.03;;
2488;SDS011;1255;48.716;9.124;2023-04-25T06:11:19;2.80;;;2.60;;
2488;SDS011;1255;48.716;9.124;2023-04-25T06:13:47;3.22;;;2.92;;
2488;SDS011;1255;48.716;9.124;2023-04-25T06:16:14;3.55;;;2.08;;
2488;SDS011;1255;48.716;9.124;2023-04-25T06:18:41;2.97;;;2.67;;
2488;SDS011;1255;48.716;9.124;2023-04-25T06:21:07;4.30;;;2.88;;
2488;SDS011;1255;48.716;9.124;2023-04-25T06:23:34;5.03;;;2.60;;
2488;SDS011;1255;48.716;9.124;2023-04-25T06:26:01;2.90;;;2.63;;
2488;SDS011;1255;48.716;9.124;2023-04-25T06:28:28;2.42;;;2.22;;
2488;SDS011;1255;48.716;9.124;2023-04-25T06:30:56;3.78;;;2.33;;
2488;SDS011;1255;48.716;9.124;2023-04-25T06:33:23;2.53;;;2.28;;
2488;SDS011;1255;48.716;9.124;2023-04-25T06:35:50;4.10;;;3.05;;
2488;SDS011;1255;48.716;9.124;2023-04-25T06:38:17;2.95;;;2.25;;
2488;SDS011;1255;48.716;9.124;2023-04-25T06:40:43;2.90;;;2.40;;
2488;SDS011;1255;48.716;9.124;2023-04-25T06:43:10;2.70;;;2.50;;
2488;SDS011;1255;48.716;9.124;2023-04-25T06:45:37;3.15;;;2.65;;
2488;SDS011;1255;48.716;9.124;2023-04-25T06:48:05;5.10;;;2.45;;
2488;SDS011;1255;48.716;9.124;2023-04-25T06:50:33;5.57;;;2.63;;
2488;SDS011;1255;48.716;9.124;2023-04-25T06:53:00;4.30;;;2.58;;
2488;SDS011;1255;48.716;9.124;2023-04-25T06:57:55;2.28;;;2.08;;
2488;SDS011;1255;48.716;9.124;2023-04-25T07:00:22;2.92;;;2.20;;
2488;SDS011;1255;48.716;9.124;2023-04-25T07:02:48;1.95;;;1.80;;
2488;SDS011;1255;48.716;9.124;2023-04-25T07:05:16;2.08;;;1.88;;
2488;SDS011;1255;48.716;9.124;2023-04-25T07:07:43;2.47;;;2.25;;
2488;SDS011;1255;48.716;9.124;2023-04-25T07:10:10;2.00;;;1.90;;
2488;SDS011;1255;48.716;9.124;2023-04-25T07:12:36;2.13;;;1.92;;
2488;SDS011;1255;48.716;9.124;2023-04-25T07:15:04;2.22;;;2.03;;
2488;SDS011;1255;48.716;9.124;2023-04-25T07:17:33;2.38;;;2.10;;
2488;SDS011;1255;48.716;9.124;2023-04-25T07:19:59;1.95;;;1.85;;
2488;SDS011;1255;48.716;9.124;2023-04-25T07:22:27;3.70;;;2.75;;
2488;SDS011;1255;48.716;9.124;2023-04-25T07:24:55;2.40;;;1.90;;
2488;SDS011;1255;48.716;9.124;2023-04-25T07:27:21;3.25;;;2.85;;
2488;SDS011;1255;48.716;9.124;2023-04-25T07:29:48;3.88;;;2.00;;
2488;SDS011;1255;48.716;9.124;2023-04-25T07:32:15;3.35;;;2.47;;
2488;SDS011;1255;48.716;9.124;2023-04-25T07:34:41;2.40;;;2.20;;
2488;SDS011;1255;48.716;9.124;2023-04-25T07:37:08;2.65;;;2.38;;
2488;SDS011;1255;48.716;9.124;2023-04-25T07:39:36;3.65;;;2.92;;
2488;SDS011;1255;48.716;9.124;2023-04-25T07:42:03;3.25;;;2.70;;
2488;SDS011;1255;48.716;9.124;2023-04-25T07:44:32;2.90;;;2.65;;
2488;SDS011;1255;48.716;9.124;2023-04-25T07:47:03;3.35;;;2.45;;
2488;SDS011;1255;48.716;9.124;2023-04-25T07:49:31;2.15;;;1.95;;
2488;SDS011;1255;48.716;9.124;2023-04-25T07:51:58;3.63;;;3.08;;
2488;SDS011;1255;48.716;9.124;2023-04-25T07:54:25;3.70;;;3.08;;
2488;SDS011;1255;48.716;9.124;2023-04-25T07:56:53;6.10;;;3.20;;
2488;SDS011;1255;48.716;9.124;2023-04-25T07:59:20;4.45;;;3.00;;
2488;SDS011;1255;48.716;9.124;2023-04-25T08:01:47;3.17;;;2.72;;
2488;SDS011;1255;48.716;9.124;2023-04-25T08:04:13;4.18;;;3.45;;
2488;SDS011;1255;48.716;9.124;2023-04-25T08:06:40;4.45;;;3.10;;
2488;SDS011;1255;48.716;9.124;2023-04-25T08:09:07;2.88;;;2.33;;
2488;SDS011;1255;48.716;9.124;2023-04-25T08:11:34;3.30;;;2.67;;
2488;SDS011;1255;48.716;9.124;2023-04-25T08:14:02;5.75;;;3.17;;
2488;SDS011;1255;48.716;9.124;2023-04-25T08:16:29;4.50;;;3.03;;
2488;SDS011;1255;48.716;9.124;2023-04-25T08:18:55;3.50;;;3.20;;
2488;SDS011;1255;48.716;9.124;2023-04-25T08:21:22;3.35;;;2.70;;
2488;SDS011;1255;48.716;9.124;2023-04-25T08:23:49;4.30;;;2.90;;
2488;SDS011;1255;48.716;9.124;2023-04-25T08:26:15;2.83;;;2.47;;
2488;SDS011;1255;48.716;9.124;2023-04-25T08:28:42;4.32;;;3.00;;
2488;SDS011;1255;48.716;9.124;2023-04-25T08:31:10;4.07;;;3.08;;
2488;SDS011;1255;48.716;9.124;2023-04-25T08:33:37;3.10;;;2.55;;
2488;SDS011;1255;48.716;9.124;2023-04-25T08:36:04;3.50;;;2.80;;
2488;SDS011;1255;48.716;9.124;2023-04-25T08:38:31;4.70;;;3.10;;
2488;SDS011;1255;48.716;9.124;2023-04-25T08:40:57;3.53;;;2.92;;
2488;SDS011;1255;48.716;9.124;2023-04-25T08:43:26;3.47;;;2.78;;
2488;SDS011;1255;48.716;9.124;2023-04-25T08:45:56;3.78;;;2.30;;
2488;SDS011;1255;48.716;9.124;2023-04-25T08:48:28;4.05;;;3.30;;
2488;SDS011;1255;48.716;9.124;2023-04-25T08:50:55;3.42;;;2.75;;
2488;SDS011;1255;48.716;9.124;2023-04-25T08:53:25;5.05;;;3.45;;
2488;SDS011;1255;48.716;9.124;2023-04-25T08:55:53;5.03;;;2.85;;
2488;SDS011;1255;48.716;9.124;2023-04-25T08:58:21;2.90;;;2.55;;
2488;SDS011;1255;48.716;9.124;2023-04-25T09:00:49;4.13;;;3.10;;
2488;SDS011;1255;48.716;9.124;2023-04-25T09:03:16;3.20;;;2.90;;
2488;SDS011;1255;48.716;9.124;2023-04-25T09:05:44;3.80;;;2.75;;
2488;SDS011;1255;48.716;9.124;2023-04-25T09:08:11;8.45;;;3.10;;
2488;SDS011;1255;48.716;9.124;2023-04-25T09:10:38;3.20;;;2.65;;
2488;SDS011;1255;48.716;9.124;2023-04-25T09:13:06;3.83;;;3.03;;
2488;SDS011;1255;48.716;9.124;2023-04-25T09:15:46;3.40;;;2.70;;
2488;SDS011;1255;48.716;9.124;2023-04-25T09:18:21;4.05;;;2.75;;
2488;SDS011;1255;48.716;9.124;2023-04-25T09:20:51;4.20;;;2.70;;
2488;SDS011;1255;48.716;9.124;2023-04-25T09:23:18;4.15;;;2.60;;
2488;SDS011;1255;48.716;9.124;2023-04-25T09:25:46;3.90;;;3.03;;
2488;SDS011;1255;48.716;9.124;2023-04-25T09:28:14;3.10;;;2.70;;
2488;SDS011;1255;48.716;9.124;2023-04-25T09:30:41;3.47;;;3.03;;
2488;SDS011;1255;48.716;9.124;2023-04-25T09:33:08;3.03;;;2.30;;
2488;SDS011;1255;48.716;9.124;2023-04-25T09:35:36;3.15;;;2.40;;
2488;SDS011;1255;48.716;9.124;2023-04-25T09:38:08;5.38;;;2.60;;
2488;SDS011;1255;48.716;9.124;2023-04-25T09:40:40;3.17;;;2.75;;
2488;SDS011;1255;48.716;9.124;2023-04-25T09:43:10;6.05;;;3.90;;
2488;SDS011;1255;48.716;9.124;2023-04-25T09:45:45;2.60;;;2.40;;
2488;SDS011;1255;48.716;9.124;2023-04-25T09:48:12;3.03;;;2.65;;
2488;SDS011;1255;48.716;9.124;2023-04-25T09:50:43;2.20;;;2.00;;
2488;SDS011;1255;48.716;9.124;2023-04-25T09:53:11;2.25;;;2.05;;
2488;SDS011;1255;48.716;9.124;2023-04-25T09:55:38;2.03;;;1.83;;
2488;SDS011;1255;48.716;9.124;2023-04-25T09:58:08;2.42;;;1.95;;
2488;SDS011;1255;48.716;9.124;2023-04-25T10:00:37;2.28;;;1.90;;
2488;SDS011;1255;48.716;9.124;2023-04-25T10:03:04;2.17;;;1.95;;
2488;SDS011;1255;48.716;9.124;2023-04-25T10:05:32;2.63;;;1.95;;
2488;SDS011;1255;48.716;9.124;2023-04-25T10:08:02;2.10;;;1.65;;
2488;SDS011;1255;48.716;9.124;2023-04-25T10:10:32;1.55;;;1.45;;
2488;SDS011;1255;48.716;9.124;2023-04-25T10:13:02;1.52;;;1.42;;
2488;SDS011;1255;48.716;9.124;2023-04-25T10:15:30;1.50;;;1.40;;
2488;SDS011;1255;48.716;9.124;2023-04-25T10:18:00;1.70;;;1.10;;
2488;SDS011;1255;48.716;9.124;2023-04-25T10:20:27;3.38;;;2.50;;
2488;SDS011;1255;48.716;9.124;2023-04-25T10:22:55;3.63;;;1.30;;
2488;SDS011;1255;48.716;9.124;2023-04-25T10:25:27;1.10;;;0.90;;
2488;SDS011;1255;48.716;9.124;2023-04-25T10:27:55;1.30;;;1.10;;
2488;SDS011;1255;48.716;9.124;2023-04-25T10:30:22;1.30;;;1.20;;
2488;SDS011;1255;48.716;9.124;2023-04-25T10:32:49;1.80;;;1.05;;
2488;SDS011;1255;48.716;9.124;2023-04-25T10:35:16;2.35;;;1.52;;
2488;SDS011;1255;48.716;9.124;2023-04-25T10:37:57;1.50;;;1.10;;
2488;SDS011;1255;48.716;9.124;2023-04-25T10:40:29;0.80;;;0.80;;
2488;SDS011;1255;48.716;9.124;2023-04-25T10:43:32;1.30;;;1.08;;
2488;SDS011;1255;48.716;9.124;2023-04-25T10:46:01;1.10;;;1.00;;
2488;SDS011;1255;48.716;9.124;2023-04-25T10:48:30;1.20;;;1.10;;
2488;SDS011;1255;48.716;9.124;2023-04-25T10:51:06;1.35;;;0.80;;
2488;SDS011;1255;48.716;9.124;2023-04-25T10:53:34;1.15;;;1.05;;
2488;SDS011;1255;48.716;9.124;2023-04-25T10:56:05;1.20;;;1.10;;
2488;SDS011;1255;48.716;9.124;2023-04-25T10:58:42;1.10;;;0.85;;
2488;SDS011;1255;48.716;9.124;2023-04-25T11:01:09;1.20;;;1.10;;
2488;SDS011;1255;48.716;9.124;2023-04-25T11:03:38;1.00;;;0.90;;
2488;SDS011;1255;48.716;9.124;2023-04-25T11:06:06;1.10;;;1.00;;
2488;SDS011;1255;48.716;9.124;2023-04-25T11:08:47;1.10;;;1.00;;
2488;SDS011;1255;48.716;9.124;2023-04-25T11:11:16;1.20;;;1.02;;
2488;SDS011;1255;48.716;9.124;2023-04-25T11:13:46;1.00;;;0.90;;
2488;SDS011;1255;48.716;9.124;2023-04-25T11:16:14;1.20;;;1.00;;
2488;SDS011;1255;48.716;9.124;2023-04-25T11:18:41;2.60;;;1.77;;
2488;SDS011;1255;48.716;9.124;2023-04-25T11:21:07;1.45;;;1.25;;
2488;SDS011;1255;48.716;9.124;2023-04-25T11:23:34;1.55;;;1.45;;
2488;SDS011;1255;48.716;9.124;2023-04-25T11:26:01;1.90;;;1.67;;
2488;SDS011;1255;48.716;9.124;2023-04-25T11:28:28;1.98;;;1.77;;
2488;SDS011;1255;48.716;9.124;2023-04-25T11:30:56;1.65;;;1.52;;
2488;SDS011;1255;48.716;9.124;2023-04-25T11:33:23;2.15;;;1.88;;
2488;SDS011;1255;48.716;9.124;2023-04-25T11:35:52;1.88;;;1.73;;
2488;SDS011;1255;48.716;9.124;2023-04-25T11:38:21;1.55;;;1.40;;
2488;SDS011;1255;48.716;9.124;2023-04-25T11:40:49;1.50;;;1.20;;
2488;SDS011;1255;48.716;9.124;2023-04-25T11:43:17;1.08;;;0.98;;
2488;SDS011;1255;48.716;9.124;2023-04-25T11:45:46;1.20;;;1.00;;
2488;SDS011;1255;48.716;9.124;2023-04-25T11:48:14;1.90;;;1.48;;
2488;SDS011;1255;48.716;9.124;2023-04-25T11:50:41;2.78;;;1.65;;
2488;SDS011;1255;48.716;9.124;2023-04-25T11:53:08;1.60;;;1.50;;
2488;SDS011;1255;48.716;9.124;2023-04-25T11:55:35;1.98;;;1.60;;
2488;SDS011;1255;48.716;9.124;2023-04-25T11:58:03;1.40;;;1.30;;
2488;SDS011;1255;48.716;9.124;2023-04-25T12:00:31;2.30;;;1.70;;
2488;SDS011;1255;48.716;9.124;2023-04-25T12:02:58;1.95;;;1.85;;
2488;SDS011;1255;48.716;9.124;2023-04-25T12:05:26;1.70;;;1.60;;
2488;SDS011;1255;48.716;9.124;2023-04-25T12:07:54;1.90;;;1.60;;
2488;SDS011;1255;48.716;9.124;2023-04-25T12:10:21;1.90;;;1.60;;
2488;SDS011;1255;48.716;9.124;2023-04-25T12:12:50;2.00;;;1.63;;
2488;SDS011;1255;48.716;9.124;2023-04-25T12:15:18;1.80;;;1.70;;
2488;SDS011;1255;48.716;9.124;2023-04-25T12:17:50;1.98;;;1.80;;
2488;SDS011;1255;48.716;9.124;2023-04-25T12:20:19;2.13;;;1.90;;
2488;SDS011;1255;48.716;9.124;2023-04-25T12:22:50;2.45;;;1.73;;
2488;SDS011;1255;48.716;9.124;2023-04-25T12:28:09;2.33;;;2.13;;
2488;SDS011;1255;48.716;9.124;2023-04-25T12:30:51;2.22;;;2.00;;
2488;SDS011;1255;48.716;9.124;2023-04-25T12:33:22;2.38;;;2.17;;
2488;SDS011;1255;48.716;9.124;2023-04-25T12:35:49;4.35;;;2.50;;
2488;SDS011;1255;48.716;9.124;2023-04-25T12:38:28;3.20;;;2.50;;
2488;SDS011;1255;48.716;9.124;2023-04-25T12:40:56;2.70;;;2.10;;
2488;SDS011;1255;48.716;9.124;2023-04-25T12:43:23;2.42;;;2.20;;
2488;SDS011;1255;48.716;9.124;2023-04-25T12:45:50;3.75;;;3.33;;
2488;SDS011;1255;48.716;9.124;2023-04-25T12:48:18;2.45;;;2.25;;
2488;SDS011;1255;48.716;9.124;2023-04-25T12:50:46;2.92;;;2.40;;
2488;SDS011;1255;48.716;9.124;2023-04-25T12:53:14;6.38;;;3.15;;
2488;SDS011;1255;48.716;9.124;2023-04-25T12:55:42;3.08;;;2.50;;
2488;SDS011;1255;48.716;9.124;2023-04-25T12:58:10;3.22;;;2.55;;
2488;SDS011;1255;48.716;9.124;2023-04-25T13:00:37;2.65;;;2.22;;
2488;SDS011;1255;48.716;9.124;2023-04-25T13:03:04;3.15;;;2.80;;
2488;SDS011;1255;48.716;9.124;2023-04-25T13:05:31;3.20;;;2.90;;
2488;SDS011;1255;48.716;9.124;2023-04-25T13:07:58;3.33;;;3.03;;
2488;SDS011;1255;48.716;9.124;2023-04-25T13:10:24;4.80;;;2.90;;
2488;SDS011;1255;48.716;9.124;2023-04-25T13:12:53;3.40;;;2.00;;
2488;SDS011;1255;48.716;9.124;2023-04-25T13:15:19;3.75;;;2.42;;
2488;SDS011;1255;48.716;9.124;2023-04-25T13:17:46;6.88;;;2.85;;
2488;SDS011;1255;48.716;9.124;2023-04-25T13:20:13;2.75;;;2.55;;
2488;SDS011;1255;48.716;9.124;2023-04-25T13:22:42;3.28;;;2.95;;
2488;SDS011;1255;48.716;9.124;2023-04-25T13:25:10;4.70;;;3.10;;
2488;SDS011;1255;48.716;9.124;2023-04-25T13:27:37;3.42;;;2.97;;
2488;SDS011;1255;48.716;9.124;2023-04-25T13:30:07;4.25;;;2.75;;
2488;SDS011;1255;48.716;9.124;2023-04-25T13:32:34;4.80;;;2.65;;
2488;SDS011;1255;48.716;9.124;2023-04-25T13:35:02;3.00;;;2.72;;
2488;SDS011;1255;48.716;9.124;2023-04-25T13:37:29;3.30;;;3.00;;
2488;SDS011;1255;48.716;9.124;2023-04-25T13:39:58;3.20;;;2.90;;
2488;SDS011;1255;48.716;9.124;2023-04-25T13:42:26;3.75;;;3.13;;
2488;SDS011;1255;48.716;9.124;2023-04-25T13:44:53;3.92;;;3.05;;
2488;SDS011;1255;48.716;9.124;2023-04-25T13:47:21;3.40;;;2.97;;
2488;SDS011;1255;48.716;9.124;2023-04-25T13:52:16;4.43;;;3.65;;
2488;SDS011;1255;48.716;9.124;2023-04-25T13:54:43;4.82;;;4.07;;
2488;SDS011;1255;48.716;9.124;2023-04-25T13:57:09;5.30;;;3.95;;
2488;SDS011;1255;48.716;9.124;2023-04-25T13:59:36;4.47;;;3.60;;
2488;SDS011;1255;48.716;9.124;2023-04-25T14:02:03;4.32;;;3.92;;
2488;SDS011;1255;48.716;9.124;2023-04-25T14:04:31;6.05;;;3.55;;
2488;SDS011;1255;48.716;9.124;2023-04-25T14:06:58;4.47;;;4.05;;
2488;SDS011;1255;48.716;9.124;2023-04-25T14:09:25;4.95;;;4.10;;
2488;SDS011;1255;48.716;9.124;2023-04-25T14:11:52;5.15;;;3.55;;
2488;SDS011;1255;48.716;9.124;2023-04-25T14:14:19;4.70;;;4.07;;
2488;SDS011;1255;48.716;9.124;2023-04-25T14:16:46;4.55;;;3.85;;
2488;SDS011;1255;48.716;9.124;2023-04-25T14:19:13;4.35;;;3.58;;
2488;SDS011;1255;48.716;9.124;2023-04-25T14:21:42;3.63;;;3.33;;
2488;SDS011;1255;48.716;9.124;2023-04-25T14:24:09;3.90;;;3.07;;
2488;SDS011;1255;48.716;9.124;2023-04-25T14:26:36;3.87;;;3.07;;
2488;SDS011;1255;48.716;9.124;2023-04-25T14:29:04;3.17;;;2.97;;
2488;SDS011;1255;48.716;9.124;2023-04-25T14:31:31;3.70;;;3.33;;
2488;SDS011;1255;48.716;9.124;2023-04-25T14:33:58;3.80;;;2.83;;
2488;SDS011;1255;48.716;9.124;2023-04-25T14:36:26;4.80;;;3.60;;
2488;SDS011;1255;48.716;9.124;2023-04-25T14:38:55;3.30;;;2.90;;
2488;SDS011;1255;48.716;9.124;2023-04-25T14:41:22;2.60;;;2.40;;
2488;SDS011;1255;48.716;9.124;2023-04-25T14:43:49;3.20;;;2.77;;
2488;SDS011;1255;48.716;9.124;2023-04-25T14:46:15;2.57;;;2.37;;
2488;SDS011;1255;48.716;9.124;2023-04-25T14:48:42;4.90;;;3.13;;
2488;SDS011;1255;48.716;9.124;2023-04-25T14:51:09;2.90;;;2.60;;
2488;SDS011;1255;48.716;9.124;2023-04-25T14:53:36;3.07;;;2.77;;
2488;SDS011;1255;48.716;9.124;2023-04-25T14:56:04;2.30;;;2.10;;
2488;SDS011;1255;48.716;9.124;2023-04-25T14:58:32;2.43;;;2.23;;
2488;SDS011;1255;48.716;9.124;2023-04-25T15:00:59;3.87;;;2.70;;
2488;SDS011;1255;48.716;9.124;2023-04-25T15:03:25;2.33;;;2.10;;
2488;SDS011;1255;48.716;9.124;2023-04-25T15:05:53;3.33;;;2.87;;
2488;SDS011;1255;48.716;9.124;2023-04-25T15:08:21;2.40;;;2.20;;
2488;SDS011;1255;48.716;9.124;2023-04-25T15:10:48;2.50;;;2.30;;
2488;SDS011;1255;48.716;9.124;2023-04-25T15:13:17;2.27;;;2.07;;
2488;SDS011;1255;48.716;9.124;2023-04-25T15:15:44;2.20;;;2.00;;
2488;SDS011;1255;48.716;9.124;2023-04-25T15:18:15;2.40;;;2.00;;
2488;SDS011;1255;48.716;9.124;2023-04-25T15:20:42;2.57;;;1.97;;
2488;SDS011;1255;48.716;9.124;2023-04-25T15:23:09;2.43;;;2.23;;
2488;SDS011;1255;48.716;9.124;2023-04-25T15:25:36;2.30;;;2.10;;
2488;SDS011;1255;48.716;9.124;2023-04-25T15:28:03;4.53;;;2.27;;